sensor_id;sensor_type;location;lat;lon;timestamp;P1;durP1;ratioP1;P2;durP2;ratioP2
10523;SDS011;5310;48.638;9.060;2023-08-12T00:00:10;1.63;;;1.30;;
10523;SDS011;5310;48.638;9.060;2023-08-12T00:02:37;1.97;;;1.47;;
10523;SDS011;5310;48.638;9.060;2023-08-12T00:05:04;1.57;;;1.20;;
10523;SDS011;5310;48.638;9.060;2023-08-12T00:07:30;2.00;;;1.40;;
10523;SDS011;5310;48.638;9.060;2023-08-12T00:09:57;1.30;;;1.20;;
10523;SDS011;5310;48.638;9.060;2023-08-12T00:12:23;1.73;;;1.37;;
10523;SDS011;5310;48.638;9.060;2023-08-12T00:14:49;1.50;;;1.30;;
10523;SDS011;5310;48.638;9.060;2023-08-12T00:17:15;1.30;;;1.10;;
10523;SDS011;5310;48.638;9.060;2023-08-12T00:19:41;2.00;;;1.50;;
10523;SDS011;5310;48.638;9.060;2023-08-12T00:22:07;1.20;;;1.10;;
10523;SDS011;5310;48.638;9.060;2023-08-12T00:24:33;1.17;;;1.03;;
10523;SDS011;5310;48.638;9.060;2023-08-12T00:26:59;1.77;;;1.40;;
10523;SDS011;5310;48.638;9.060;2023-08-12T00:29:25;1.77;;;1.43;;
10523;SDS011;5310;48.638;9.060;2023-08-12T00:31:51;1.37;;;1.20;;
10523;SDS011;5310;48.638;9.060;2023-08-12T00:34:17;1.67;;;1.30;;
10523;SDS011;5310;48.638;9.060;2023-08-12T00:36:43;1.57;;;1.30;;
10523;SDS011;5310;48.638;9.060;2023-08-12T00:39:09;1.53;;;1.40;;
10523;SDS011;5310;48.638;9.060;2023-08-12T00:41:35;2.13;;;1.57;;
10523;SDS011;5310;48.638;9.060;2023-08-12T00:44:01;1.83;;;1.43;;
10523;SDS011;5310;48.638;9.060;2023-08-12T00:46:27;2.67;;;1.90;;
10523;SDS011;5310;48.638;9.060;2023-08-12T00:48:53;1.80;;;1.30;;
10523;SDS011;5310;48.638;9.060;2023-08-12T00:51:19;2.17;;;1.57;;
10523;SDS011;5310;48.638;9.060;2023-08-12T00:53:45;2.10;;;1.60;;
10523;SDS011;5310;48.638;9.060;2023-08-12T00:56:12;1.87;;;1.47;;
10523;SDS011;5310;48.638;9.060;2023-08-12T00:58:38;1.47;;;1.30;;
10523;SDS011;5310;48.638;9.060;2023-08-12T01:01:04;1.80;;;1.40;;
10523;SDS011;5310;48.638;9.060;2023-08-12T01:03:30;1.23;;;1.13;;
10523;SDS011;5310;48.638;9.060;2023-08-12T01:05:56;1.33;;;1.23;;
10523;SDS011;5310;48.638;9.060;2023-08-12T01:08:23;1.37;;;1.27;;
10523;SDS011;5310;48.638;9.060;2023-08-12T01:10:56;1.63;;;1.33;;
10523;SDS011;5310;48.638;9.060;2023-08-12T01:13:34;1.20;;;1.10;;
10523;SDS011;5310;48.638;9.060;2023-08-12T01:16:05;1.37;;;1.20;;
10523;SDS011;5310;48.638;9.060;2023-08-12T01:18:33;1.77;;;1.40;;
10523;SDS011;5310;48.638;9.060;2023-08-12T01:21:00;1.37;;;1.23;;
10523;SDS011;5310;48.638;9.060;2023-08-12T01:23:28;1.13;;;1.03;;
10523;SDS011;5310;48.638;9.060;2023-08-12T01:25:54;1.10;;;1.00;;
10523;SDS011;5310;48.638;9.060;2023-08-12T01:28:20;1.47;;;1.30;;
10523;SDS011;5310;48.638;9.060;2023-08-12T01:30:51;1.67;;;1.37;;
10523;SDS011;5310;48.638;9.060;2023-08-12T01:33:26;1.43;;;1.23;;
10523;SDS011;5310;48.638;9.060;2023-08-12T01:36:09;1.60;;;1.40;;
10523;SDS011;5310;48.638;9.060;2023-08-12T01:38:38;1.87;;;1.50;;
10523;SDS011;5310;48.638;9.060;2023-08-12T01:41:04;1.57;;;1.30;;
10523;SDS011;5310;48.638;9.060;2023-08-12T01:43:31;1.10;;;1.00;;
10523;SDS011;5310;48.638;9.060;2023-08-12T01:45:58;1.30;;;1.20;;
10523;SDS011;5310;48.638;9.060;2023-08-12T01:48:24;1.33;;;1.20;;
10523;SDS011;5310;48.638;9.060;2023-08-12T01:50:50;1.80;;;1.40;;
10523;SDS011;5310;48.638;9.060;2023-08-12T01:53:16;1.33;;;1.17;;
10523;SDS011;5310;48.638;9.060;2023-08-12T01:55:42;1.40;;;1.30;;
10523;SDS011;5310;48.638;9.060;2023-08-12T01:58:09;1.03;;;1.00;;
10523;SDS011;5310;48.638;9.060;2023-08-12T02:00:35;1.97;;;1.30;;
10523;SDS011;5310;48.638;9.060;2023-08-12T02:03:01;1.60;;;1.27;;
10523;SDS011;5310;48.638;9.060;2023-08-12T02:05:27;1.47;;;1.27;;
10523;SDS011;5310;48.638;9.060;2023-08-12T02:07:53;1.70;;;1.40;;
10523;SDS011;5310;48.638;9.060;2023-08-12T02:10:19;1.17;;;1.07;;
10523;SDS011;5310;48.638;9.060;2023-08-12T02:12:45;1.33;;;1.20;;
10523;SDS011;5310;48.638;9.060;2023-08-12T02:15:11;1.30;;;1.10;;
10523;SDS011;5310;48.638;9.060;2023-08-12T02:17:37;1.83;;;1.43;;
10523;SDS011;5310;48.638;9.060;2023-08-12T02:20:03;1.20;;;1.10;;
10523;SDS011;5310;48.638;9.060;2023-08-12T02:22:29;1.10;;;1.00;;
10523;SDS011;5310;48.638;9.060;2023-08-12T02:24:55;1.27;;;1.17;;
10523;SDS011;5310;48.638;9.060;2023-08-12T02:27:20;1.67;;;1.30;;
10523;SDS011;5310;48.638;9.060;2023-08-12T02:29:46;1.53;;;1.40;;
10523;SDS011;5310;48.638;9.060;2023-08-12T02:32:12;1.27;;;1.17;;
10523;SDS011;5310;48.638;9.060;2023-08-12T02:34:38;1.53;;;1.30;;
10523;SDS011;5310;48.638;9.060;2023-08-12T02:37:04;1.30;;;1.17;;
10523;SDS011;5310;48.638;9.060;2023-08-12T02:39:30;0.80;;;0.80;;
10523;SDS011;5310;48.638;9.060;2023-08-12T02:41:56;1.27;;;1.17;;
10523;SDS011;5310;48.638;9.060;2023-08-12T02:44:22;1.37;;;1.17;;
10523;SDS011;5310;48.638;9.060;2023-08-12T02:46:48;1.33;;;1.23;;
10523;SDS011;5310;48.638;9.060;2023-08-12T02:49:14;1.60;;;1.40;;
10523;SDS011;5310;48.638;9.060;2023-08-12T02:51:40;1.70;;;1.50;;
10523;SDS011;5310;48.638;9.060;2023-08-12T02:54:06;1.50;;;1.30;;
10523;SDS011;5310;48.638;9.060;2023-08-12T02:56:32;1.63;;;1.33;;
10523;SDS011;5310;48.638;9.060;2023-08-12T02:58:58;1.27;;;1.17;;
10523;SDS011;5310;48.638;9.060;2023-08-12T03:01:24;1.50;;;1.40;;
10523;SDS011;5310;48.638;9.060;2023-08-12T03:03:50;1.40;;;1.20;;
10523;SDS011;5310;48.638;9.060;2023-08-12T03:06:16;1.43;;;1.27;;
10523;SDS011;5310;48.638;9.060;2023-08-12T03:08:42;1.77;;;1.40;;
10523;SDS011;5310;48.638;9.060;2023-08-12T03:11:08;1.43;;;1.20;;
10523;SDS011;5310;48.638;9.060;2023-08-12T03:13:34;1.77;;;1.40;;
10523;SDS011;5310;48.638;9.060;2023-08-12T03:16:00;1.70;;;1.47;;
10523;SDS011;5310;48.638;9.060;2023-08-12T03:18:26;1.37;;;1.27;;
10523;SDS011;5310;48.638;9.060;2023-08-12T03:20:52;1.80;;;1.40;;
10523;SDS011;5310;48.638;9.060;2023-08-12T03:23:18;0.93;;;0.90;;
10523;SDS011;5310;48.638;9.060;2023-08-12T03:25:46;1.40;;;1.30;;
10523;SDS011;5310;48.638;9.060;2023-08-12T03:28:13;1.33;;;1.20;;
10523;SDS011;5310;48.638;9.060;2023-08-12T03:30:39;2.30;;;1.40;;
10523;SDS011;5310;48.638;9.060;2023-08-12T03:33:05;1.30;;;1.20;;
10523;SDS011;5310;48.638;9.060;2023-08-12T03:35:31;1.40;;;1.30;;
10523;SDS011;5310;48.638;9.060;2023-08-12T03:37:56;1.60;;;1.30;;
10523;SDS011;5310;48.638;9.060;2023-08-12T03:40:22;1.30;;;1.20;;
10523;SDS011;5310;48.638;9.060;2023-08-12T03:42:48;1.33;;;1.17;;
10523;SDS011;5310;48.638;9.060;2023-08-12T03:45:14;1.20;;;1.10;;
10523;SDS011;5310;48.638;9.060;2023-08-12T03:47:40;1.43;;;1.20;;
10523;SDS011;5310;48.638;9.060;2023-08-12T03:50:06;1.50;;;1.27;;
10523;SDS011;5310;48.638;9.060;2023-08-12T03:52:32;2.10;;;1.50;;
10523;SDS011;5310;48.638;9.060;2023-08-12T03:54:58;1.13;;;1.07;;
10523;SDS011;5310;48.638;9.060;2023-08-12T03:57:24;1.10;;;1.00;;
10523;SDS011;5310;48.638;9.060;2023-08-12T03:59:50;1.57;;;1.30;;
10523;SDS011;5310;48.638;9.060;2023-08-12T04:02:15;1.27;;;1.10;;
10523;SDS011;5310;48.638;9.060;2023-08-12T04:04:41;1.40;;;1.20;;
10523;SDS011;5310;48.638;9.060;2023-08-12T04:07:08;1.50;;;1.20;;
10523;SDS011;5310;48.638;9.060;2023-08-12T04:09:34;1.27;;;1.17;;
10523;SDS011;5310;48.638;9.060;2023-08-12T04:12:00;1.20;;;1.10;;
10523;SDS011;5310;48.638;9.060;2023-08-12T04:14:26;1.20;;;1.10;;
10523;SDS011;5310;48.638;9.060;2023-08-12T04:16:52;1.20;;;1.10;;
10523;SDS011;5310;48.638;9.060;2023-08-12T04:19:18;1.97;;;1.50;;
10523;SDS011;5310;48.638;9.060;2023-08-12T04:21:44;2.43;;;1.70;;
10523;SDS011;5310;48.638;9.060;2023-08-12T04:24:11;1.83;;;1.50;;
10523;SDS011;5310;48.638;9.060;2023-08-12T04:26:38;1.47;;;1.30;;
10523;SDS011;5310;48.638;9.060;2023-08-12T04:29:04;1.30;;;1.20;;
10523;SDS011;5310;48.638;9.060;2023-08-12T04:31:30;1.17;;;1.07;;
10523;SDS011;5310;48.638;9.060;2023-08-12T04:33:56;1.70;;;1.50;;
10523;SDS011;5310;48.638;9.060;2023-08-12T04:36:22;1.20;;;1.10;;
10523;SDS011;5310;48.638;9.060;2023-08-12T04:38:48;1.30;;;1.20;;
10523;SDS011;5310;48.638;9.060;2023-08-12T04:41:14;1.23;;;1.10;;
10523;SDS011;5310;48.638;9.060;2023-08-12T04:43:40;1.47;;;1.23;;
10523;SDS011;5310;48.638;9.060;2023-08-12T04:46:06;1.83;;;1.40;;
10523;SDS011;5310;48.638;9.060;2023-08-12T04:48:33;1.63;;;1.33;;
10523;SDS011;5310;48.638;9.060;2023-08-12T04:50:59;1.20;;;1.10;;
10523;SDS011;5310;48.638;9.060;2023-08-12T04:53:26;1.30;;;1.20;;
10523;SDS011;5310;48.638;9.060;2023-08-12T04:55:53;1.20;;;1.10;;
10523;SDS011;5310;48.638;9.060;2023-08-12T04:58:19;1.40;;;1.20;;
10523;SDS011;5310;48.638;9.060;2023-08-12T05:00:45;1.73;;;1.33;;
10523;SDS011;5310;48.638;9.060;2023-08-12T05:03:12;1.20;;;1.10;;
10523;SDS011;5310;48.638;9.060;2023-08-12T05:05:38;1.43;;;1.23;;
10523;SDS011;5310;48.638;9.060;2023-08-12T05:08:04;1.77;;;1.40;;
10523;SDS011;5310;48.638;9.060;2023-08-12T05:10:29;1.77;;;1.27;;
10523;SDS011;5310;48.638;9.060;2023-08-12T05:12:57;1.77;;;1.40;;
10523;SDS011;5310;48.638;9.060;2023-08-12T05:15:23;1.37;;;1.23;;
10523;SDS011;5310;48.638;9.060;2023-08-12T05:17:49;1.43;;;1.23;;
10523;SDS011;5310;48.638;9.060;2023-08-12T05:20:15;1.40;;;1.20;;
10523;SDS011;5310;48.638;9.060;2023-08-12T05:22:41;1.40;;;1.20;;
10523;SDS011;5310;48.638;9.060;2023-08-12T05:25:07;1.10;;;1.00;;
10523;SDS011;5310;48.638;9.060;2023-08-12T05:27:33;1.33;;;1.17;;
10523;SDS011;5310;48.638;9.060;2023-08-12T05:29:59;1.37;;;1.20;;
10523;SDS011;5310;48.638;9.060;2023-08-12T05:32:25;1.13;;;1.03;;
10523;SDS011;5310;48.638;9.060;2023-08-12T05:34:55;1.27;;;1.17;;
10523;SDS011;5310;48.638;9.060;2023-08-12T05:37:20;1.10;;;1.00;;
10523;SDS011;5310;48.638;9.060;2023-08-12T05:39:46;1.30;;;1.17;;
10523;SDS011;5310;48.638;9.060;2023-08-12T05:42:12;1.30;;;1.20;;
10523;SDS011;5310;48.638;9.060;2023-08-12T05:44:40;1.27;;;1.17;;
10523;SDS011;5310;48.638;9.060;2023-08-12T05:47:07;1.27;;;1.17;;
10523;SDS011;5310;48.638;9.060;2023-08-12T05:49:32;1.17;;;1.07;;
10523;SDS011;5310;48.638;9.060;2023-08-12T05:51:58;1.40;;;1.20;;
10523;SDS011;5310;48.638;9.060;2023-08-12T05:54:24;1.10;;;1.00;;
10523;SDS011;5310;48.638;9.060;2023-08-12T05:56:50;1.13;;;1.03;;
10523;SDS011;5310;48.638;9.060;2023-08-12T05:59:17;1.13;;;1.03;;
10523;SDS011;5310;48.638;9.060;2023-08-12T06:01:42;1.43;;;1.20;;
10523;SDS011;5310;48.638;9.060;2023-08-12T06:04:08;1.10;;;1.00;;
10523;SDS011;5310;48.638;9.060;2023-08-12T06:06:34;1.20;;;1.07;;
10523;SDS011;5310;48.638;9.060;2023-08-12T06:09:00;1.23;;;1.13;;
10523;SDS011;5310;48.638;9.060;2023-08-12T06:11:26;1.10;;;1.00;;
10523;SDS011;5310;48.638;9.060;2023-08-12T06:13:52;1.00;;;0.90;;
10523;SDS011;5310;48.638;9.060;2023-08-12T06:16:18;1.20;;;1.10;;
10523;SDS011;5310;48.638;9.060;2023-08-12T06:18:44;1.37;;;1.23;;
10523;SDS011;5310;48.638;9.060;2023-08-12T06:21:10;1.57;;;1.23;;
10523;SDS011;5310;48.638;9.060;2023-08-12T06:23:36;1.30;;;1.10;;
10523;SDS011;5310;48.638;9.060;2023-08-12T06:26:02;1.70;;;1.30;;
10523;SDS011;5310;48.638;9.060;2023-08-12T06:28:28;1.40;;;1.23;;
10523;SDS011;5310;48.638;9.060;2023-08-12T06:30:54;1.33;;;1.07;;
10523;SDS011;5310;48.638;9.060;2023-08-12T06:33:20;1.53;;;1.20;;
10523;SDS011;5310;48.638;9.060;2023-08-12T06:35:46;2.03;;;1.50;;
10523;SDS011;5310;48.638;9.060;2023-08-12T06:38:11;1.40;;;1.13;;
10523;SDS011;5310;48.638;9.060;2023-08-12T06:40:38;2.07;;;1.20;;
10523;SDS011;5310;48.638;9.060;2023-08-12T06:43:04;1.10;;;1.00;;
10523;SDS011;5310;48.638;9.060;2023-08-12T06:45:32;0.93;;;0.83;;
10523;SDS011;5310;48.638;9.060;2023-08-12T06:47:58;1.33;;;1.08;;
10523;SDS011;5310;48.638;9.060;2023-08-12T06:50:24;1.23;;;1.10;;
10523;SDS011;5310;48.638;9.060;2023-08-12T06:52:50;1.38;;;1.20;;
10523;SDS011;5310;48.638;9.060;2023-08-12T06:55:16;1.50;;;1.20;;
10523;SDS011;5310;48.638;9.060;2023-08-12T06:57:42;0.98;;;0.85;;
10523;SDS011;5310;48.638;9.060;2023-08-12T07:00:08;1.73;;;1.25;;
10523;SDS011;5310;48.638;9.060;2023-08-12T07:02:34;1.83;;;1.33;;
10523;SDS011;5310;48.638;9.060;2023-08-12T07:05:00;2.60;;;1.60;;
10523;SDS011;5310;48.638;9.060;2023-08-12T07:07:26;2.13;;;1.35;;
10523;SDS011;5310;48.638;9.060;2023-08-12T07:09:52;1.73;;;1.23;;
10523;SDS011;5310;48.638;9.060;2023-08-12T07:12:18;1.27;;;0.98;;
10523;SDS011;5310;48.638;9.060;2023-08-12T07:14:44;1.88;;;1.33;;
10523;SDS011;5310;48.638;9.060;2023-08-12T07:17:10;1.42;;;1.05;;
10523;SDS011;5310;48.638;9.060;2023-08-12T07:19:36;1.08;;;0.93;;
10523;SDS011;5310;48.638;9.060;2023-08-12T07:22:02;1.15;;;0.98;;
10523;SDS011;5310;48.638;9.060;2023-08-12T07:24:28;1.40;;;1.17;;
10523;SDS011;5310;48.638;9.060;2023-08-12T07:26:53;1.25;;;1.02;;
10523;SDS011;5310;48.638;9.060;2023-08-12T07:29:20;1.13;;;1.00;;
10523;SDS011;5310;48.638;9.060;2023-08-12T07:31:46;1.35;;;1.05;;
10523;SDS011;5310;48.638;9.060;2023-08-12T07:34:11;1.30;;;1.05;;
10523;SDS011;5310;48.638;9.060;2023-08-12T07:36:38;1.38;;;1.05;;
10523;SDS011;5310;48.638;9.060;2023-08-12T07:39:05;2.22;;;1.50;;
10523;SDS011;5310;48.638;9.060;2023-08-12T07:41:31;1.38;;;1.10;;
10523;SDS011;5310;48.638;9.060;2023-08-12T07:43:57;1.50;;;1.10;;
10523;SDS011;5310;48.638;9.060;2023-08-12T07:46:23;1.92;;;1.40;;
10523;SDS011;5310;48.638;9.060;2023-08-12T07:48:49;1.95;;;1.33;;
10523;SDS011;5310;48.638;9.060;2023-08-12T07:51:15;1.00;;;0.90;;
10523;SDS011;5310;48.638;9.060;2023-08-12T07:53:41;1.30;;;1.00;;
10523;SDS011;5310;48.638;9.060;2023-08-12T07:56:07;1.05;;;0.90;;
10523;SDS011;5310;48.638;9.060;2023-08-12T07:58:33;1.90;;;1.38;;
10523;SDS011;5310;48.638;9.060;2023-08-12T08:00:59;1.55;;;1.13;;
10523;SDS011;5310;48.638;9.060;2023-08-12T08:03:25;1.20;;;0.90;;
10523;SDS011;5310;48.638;9.060;2023-08-12T08:05:51;1.80;;;1.17;;
10523;SDS011;5310;48.638;9.060;2023-08-12T08:08:17;1.50;;;1.10;;
10523;SDS011;5310;48.638;9.060;2023-08-12T08:10:43;1.20;;;1.00;;
10523;SDS011;5310;48.638;9.060;2023-08-12T08:13:09;1.35;;;0.98;;
10523;SDS011;5310;48.638;9.060;2023-08-12T08:15:35;1.20;;;0.98;;
10523;SDS011;5310;48.638;9.060;2023-08-12T08:18:02;2.17;;;1.27;;
10523;SDS011;5310;48.638;9.060;2023-08-12T08:20:29;2.47;;;1.25;;
10523;SDS011;5310;48.638;9.060;2023-08-12T08:22:55;1.60;;;1.10;;
10523;SDS011;5310;48.638;9.060;2023-08-12T08:25:21;2.05;;;1.20;;
10523;SDS011;5310;48.638;9.060;2023-08-12T08:27:47;1.67;;;1.08;;
10523;SDS011;5310;48.638;9.060;2023-08-12T08:30:13;1.67;;;1.10;;
10523;SDS011;5310;48.638;9.060;2023-08-12T08:32:38;2.22;;;1.30;;
10523;SDS011;5310;48.638;9.060;2023-08-12T08:35:05;1.83;;;1.05;;
10523;SDS011;5310;48.638;9.060;2023-08-12T08:37:30;2.13;;;1.20;;
10523;SDS011;5310;48.638;9.060;2023-08-12T08:39:56;2.28;;;1.38;;
10523;SDS011;5310;48.638;9.060;2023-08-12T08:42:22;1.73;;;1.05;;
10523;SDS011;5310;48.638;9.060;2023-08-12T08:44:51;1.15;;;0.80;;
10523;SDS011;5310;48.638;9.060;2023-08-12T08:47:22;1.67;;;1.08;;
10523;SDS011;5310;48.638;9.060;2023-08-12T08:49:50;2.35;;;1.33;;
10523;SDS011;5310;48.638;9.060;2023-08-12T08:52:17;2.85;;;1.40;;
10523;SDS011;5310;48.638;9.060;2023-08-12T08:54:43;1.38;;;0.98;;
10523;SDS011;5310;48.638;9.060;2023-08-12T08:57:09;1.80;;;1.08;;
10523;SDS011;5310;48.638;9.060;2023-08-12T08:59:37;1.38;;;0.95;;
10523;SDS011;5310;48.638;9.060;2023-08-12T09:02:03;1.88;;;1.20;;
10523;SDS011;5310;48.638;9.060;2023-08-12T09:04:30;1.83;;;1.17;;
10523;SDS011;5310;48.638;9.060;2023-08-12T09:06:57;2.20;;;1.30;;
10523;SDS011;5310;48.638;9.060;2023-08-12T09:09:23;1.58;;;0.98;;
10523;SDS011;5310;48.638;9.060;2023-08-12T09:11:50;2.88;;;1.60;;
10523;SDS011;5310;48.638;9.060;2023-08-12T09:14:17;1.63;;;1.13;;
10523;SDS011;5310;48.638;9.060;2023-08-12T09:16:44;2.63;;;1.40;;
10523;SDS011;5310;48.638;9.060;2023-08-12T09:19:09;1.95;;;1.27;;
10523;SDS011;5310;48.638;9.060;2023-08-12T09:21:35;2.60;;;1.45;;
10523;SDS011;5310;48.638;9.060;2023-08-12T09:24:05;1.00;;;0.90;;
10523;SDS011;5310;48.638;9.060;2023-08-12T09:26:31;1.55;;;1.05;;
10523;SDS011;5310;48.638;9.060;2023-08-12T09:28:57;1.08;;;0.93;;
10523;SDS011;5310;48.638;9.060;2023-08-12T09:31:25;1.10;;;0.93;;
10523;SDS011;5310;48.638;9.060;2023-08-12T09:33:51;0.93;;;0.80;;
10523;SDS011;5310;48.638;9.060;2023-08-12T09:36:18;1.40;;;1.02;;
10523;SDS011;5310;48.638;9.060;2023-08-12T09:38:45;1.35;;;1.00;;
10523;SDS011;5310;48.638;9.060;2023-08-12T09:41:11;1.25;;;1.02;;
10523;SDS011;5310;48.638;9.060;2023-08-12T09:43:41;2.03;;;1.33;;
10523;SDS011;5310;48.638;9.060;2023-08-12T09:46:10;2.15;;;1.40;;
10523;SDS011;5310;48.638;9.060;2023-08-12T09:48:37;1.08;;;0.85;;
10523;SDS011;5310;48.638;9.060;2023-08-12T09:51:03;1.15;;;0.95;;
10523;SDS011;5310;48.638;9.060;2023-08-12T09:53:29;1.13;;;0.93;;
10523;SDS011;5310;48.638;9.060;2023-08-12T09:55:55;1.38;;;1.10;;
10523;SDS011;5310;48.638;9.060;2023-08-12T09:58:28;1.27;;;0.95;;
10523;SDS011;5310;48.638;9.060;2023-08-12T10:00:55;0.80;;;0.80;;
10523;SDS011;5310;48.638;9.060;2023-08-12T10:03:21;1.65;;;1.13;;
10523;SDS011;5310;48.638;9.060;2023-08-12T10:05:48;1.40;;;1.05;;
10523;SDS011;5310;48.638;9.060;2023-08-12T10:08:16;1.38;;;1.00;;
10523;SDS011;5310;48.638;9.060;2023-08-12T10:10:43;1.98;;;1.20;;
10523;SDS011;5310;48.638;9.060;2023-08-12T10:13:09;1.10;;;1.00;;
10523;SDS011;5310;48.638;9.060;2023-08-12T10:15:35;1.33;;;0.95;;
10523;SDS011;5310;48.638;9.060;2023-08-12T10:18:02;1.80;;;1.20;;
10523;SDS011;5310;48.638;9.060;2023-08-12T10:20:30;2.92;;;1.35;;
10523;SDS011;5310;48.638;9.060;2023-08-12T10:22:57;1.52;;;1.10;;
10523;SDS011;5310;48.638;9.060;2023-08-12T10:25:25;1.50;;;1.08;;
10523;SDS011;5310;48.638;9.060;2023-08-12T10:27:57;1.27;;;1.05;;
10523;SDS011;5310;48.638;9.060;2023-08-12T10:30:23;2.58;;;1.50;;
10523;SDS011;5310;48.638;9.060;2023-08-12T10:32:49;1.80;;;1.20;;
10523;SDS011;5310;48.638;9.060;2023-08-12T10:35:15;1.60;;;1.15;;
10523;SDS011;5310;48.638;9.060;2023-08-12T10:37:42;1.00;;;0.82;;
10523;SDS011;5310;48.638;9.060;2023-08-12T10:40:19;1.08;;;0.88;;
10523;SDS011;5310;48.638;9.060;2023-08-12T10:42:47;2.65;;;1.60;;
10523;SDS011;5310;48.638;9.060;2023-08-12T10:45:14;1.45;;;1.13;;
10523;SDS011;5310;48.638;9.060;2023-08-12T10:47:41;1.58;;;1.10;;
10523;SDS011;5310;48.638;9.060;2023-08-12T10:50:18;1.88;;;1.20;;
10523;SDS011;5310;48.638;9.060;2023-08-12T10:52:45;1.42;;;1.10;;
10523;SDS011;5310;48.638;9.060;2023-08-12T10:55:27;1.17;;;0.98;;
10523;SDS011;5310;48.638;9.060;2023-08-12T10:57:54;1.33;;;0.90;;
10523;SDS011;5310;48.638;9.060;2023-08-12T11:00:22;1.25;;;0.85;;
10523;SDS011;5310;48.638;9.060;2023-08-12T11:02:53;2.50;;;1.45;;
10523;SDS011;5310;48.638;9.060;2023-08-12T11:05:20;1.85;;;1.20;;
10523;SDS011;5310;48.638;9.060;2023-08-12T11:07:59;1.70;;;1.13;;
10523;SDS011;5310;48.638;9.060;2023-08-12T11:10:30;2.45;;;1.17;;
10523;SDS011;5310;48.638;9.060;2023-08-12T11:12:56;1.23;;;0.88;;
10523;SDS011;5310;48.638;9.060;2023-08-12T11:15:33;1.38;;;1.00;;
10523;SDS011;5310;48.638;9.060;2023-08-12T11:18:10;1.35;;;0.98;;
10523;SDS011;5310;48.638;9.060;2023-08-12T11:20:36;2.25;;;1.23;;
10523;SDS011;5310;48.638;9.060;2023-08-12T11:23:03;1.55;;;1.08;;
10523;SDS011;5310;48.638;9.060;2023-08-12T11:25:30;1.48;;;1.10;;
10523;SDS011;5310;48.638;9.060;2023-08-12T11:27:57;1.60;;;1.10;;
10523;SDS011;5310;48.638;9.060;2023-08-12T11:30:23;1.58;;;1.10;;
10523;SDS011;5310;48.638;9.060;2023-08-12T11:32:50;1.80;;;1.20;;
10523;SDS011;5310;48.638;9.060;2023-08-12T11:35:20;1.77;;;1.23;;
10523;SDS011;5310;48.638;9.060;2023-08-12T11:37:46;1.23;;;0.90;;
10523;SDS011;5310;48.638;9.060;2023-08-12T11:40:13;1.08;;;0.90;;
10523;SDS011;5310;48.638;9.060;2023-08-12T11:42:40;1.60;;;1.10;;
10523;SDS011;5310;48.638;9.060;2023-08-12T11:45:07;1.25;;;0.90;;
10523;SDS011;5310;48.638;9.060;2023-08-12T11:47:34;2.08;;;1.23;;
10523;SDS011;5310;48.638;9.060;2023-08-12T11:50:03;1.08;;;0.90;;
10523;SDS011;5310;48.638;9.060;2023-08-12T11:52:29;1.65;;;1.10;;
10523;SDS011;5310;48.638;9.060;2023-08-12T11:54:55;1.45;;;1.00;;
10523;SDS011;5310;48.638;9.060;2023-08-12T11:57:22;0.98;;;0.80;;
10523;SDS011;5310;48.638;9.060;2023-08-12T11:59:48;1.85;;;1.20;;
10523;SDS011;5310;48.638;9.060;2023-08-12T12:02:14;1.13;;;0.90;;
10523;SDS011;5310;48.638;9.060;2023-08-12T12:04:41;1.23;;;0.90;;
10523;SDS011;5310;48.638;9.060;2023-08-12T12:07:21;1.67;;;1.13;;
10523;SDS011;5310;48.638;9.060;2023-08-12T12:12:53;5.53;;;2.10;;
10523;SDS011;5310;48.638;9.060;2023-08-12T12:15:20;4.40;;;1.70;;
10523;SDS011;5310;48.638;9.060;2023-08-12T12:17:46;6.38;;;2.35;;
10523;SDS011;5310;48.638;9.060;2023-08-12T12:20:12;4.97;;;1.90;;
10523;SDS011;5310;48.638;9.060;2023-08-12T12:22:40;4.80;;;1.95;;
10523;SDS011;5310;48.638;9.060;2023-08-12T12:25:08;4.97;;;1.90;;
10523;SDS011;5310;48.638;9.060;2023-08-12T12:27:39;4.72;;;1.90;;
10523;SDS011;5310;48.638;9.060;2023-08-12T12:30:08;5.50;;;2.13;;
10523;SDS011;5310;48.638;9.060;2023-08-12T12:32:35;6.15;;;2.15;;
10523;SDS011;5310;48.638;9.060;2023-08-12T12:35:01;7.43;;;2.53;;
10523;SDS011;5310;48.638;9.060;2023-08-12T12:37:28;5.28;;;2.08;;
10523;SDS011;5310;48.638;9.060;2023-08-12T12:39:54;7.15;;;2.53;;
10523;SDS011;5310;48.638;9.060;2023-08-12T12:42:20;5.70;;;2.15;;
10523;SDS011;5310;48.638;9.060;2023-08-12T12:44:46;6.70;;;2.50;;
10523;SDS011;5310;48.638;9.060;2023-08-12T12:47:11;6.28;;;2.33;;
10523;SDS011;5310;48.638;9.060;2023-08-12T12:49:38;6.38;;;2.33;;
10523;SDS011;5310;48.638;9.060;2023-08-12T12:52:06;7.20;;;2.63;;
10523;SDS011;5310;48.638;9.060;2023-08-12T12:54:32;5.97;;;2.25;;
10523;SDS011;5310;48.638;9.060;2023-08-12T12:56:58;7.13;;;2.58;;
10523;SDS011;5310;48.638;9.060;2023-08-12T12:59:24;5.68;;;2.10;;
10523;SDS011;5310;48.638;9.060;2023-08-12T13:01:50;6.50;;;2.25;;
10523;SDS011;5310;48.638;9.060;2023-08-12T13:04:16;7.00;;;2.45;;
10523;SDS011;5310;48.638;9.060;2023-08-12T13:06:42;6.60;;;2.33;;
10523;SDS011;5310;48.638;9.060;2023-08-12T13:09:08;7.40;;;2.55;;
10523;SDS011;5310;48.638;9.060;2023-08-12T13:11:34;5.28;;;1.95;;
10523;SDS011;5310;48.638;9.060;2023-08-12T13:14:00;6.32;;;2.40;;
10523;SDS011;5310;48.638;9.060;2023-08-12T13:16:26;5.90;;;2.25;;
10523;SDS011;5310;48.638;9.060;2023-08-12T13:18:52;5.25;;;2.05;;
10523;SDS011;5310;48.638;9.060;2023-08-12T13:21:17;6.03;;;2.25;;
10523;SDS011;5310;48.638;9.060;2023-08-12T13:23:43;6.50;;;2.35;;
10523;SDS011;5310;48.638;9.060;2023-08-12T13:26:09;5.93;;;2.25;;
10523;SDS011;5310;48.638;9.060;2023-08-12T13:28:35;5.38;;;2.17;;
10523;SDS011;5310;48.638;9.060;2023-08-12T13:31:01;5.78;;;2.20;;
10523;SDS011;5310;48.638;9.060;2023-08-12T13:33:27;7.38;;;2.67;;
10523;SDS011;5310;48.638;9.060;2023-08-12T13:35:53;5.97;;;2.17;;
10523;SDS011;5310;48.638;9.060;2023-08-12T13:38:19;6.22;;;2.30;;
10523;SDS011;5310;48.638;9.060;2023-08-12T13:40:45;5.47;;;2.08;;
10523;SDS011;5310;48.638;9.060;2023-08-12T13:43:11;6.88;;;2.30;;
10523;SDS011;5310;48.638;9.060;2023-08-12T13:45:37;5.32;;;2.08;;
10523;SDS011;5310;48.638;9.060;2023-08-12T13:48:03;5.93;;;2.22;;
10523;SDS011;5310;48.638;9.060;2023-08-12T13:50:29;6.57;;;2.47;;
10523;SDS011;5310;48.638;9.060;2023-08-12T13:52:57;6.22;;;2.28;;
10523;SDS011;5310;48.638;9.060;2023-08-12T13:55:24;5.88;;;2.13;;
10523;SDS011;5310;48.638;9.060;2023-08-12T13:57:50;6.68;;;2.33;;
10523;SDS011;5310;48.638;9.060;2023-08-12T14:00:16;5.35;;;2.00;;
10523;SDS011;5310;48.638;9.060;2023-08-12T14:02:42;6.55;;;2.22;;
10523;SDS011;5310;48.638;9.060;2023-08-12T14:05:09;5.13;;;1.98;;
10523;SDS011;5310;48.638;9.060;2023-08-12T14:07:35;7.10;;;2.40;;
10523;SDS011;5310;48.638;9.060;2023-08-12T14:10:02;4.82;;;1.95;;
10523;SDS011;5310;48.638;9.060;2023-08-12T14:12:28;6.57;;;2.33;;
10523;SDS011;5310;48.638;9.060;2023-08-12T14:14:54;5.15;;;1.92;;
10523;SDS011;5310;48.638;9.060;2023-08-12T14:17:19;6.70;;;2.20;;
10523;SDS011;5310;48.638;9.060;2023-08-12T14:19:48;5.22;;;1.98;;
10523;SDS011;5310;48.638;9.060;2023-08-12T14:22:14;5.63;;;2.08;;
10523;SDS011;5310;48.638;9.060;2023-08-12T14:24:40;4.82;;;1.92;;
10523;SDS011;5310;48.638;9.060;2023-08-12T14:27:07;6.13;;;2.15;;
10523;SDS011;5310;48.638;9.060;2023-08-12T14:29:33;5.43;;;2.03;;
10523;SDS011;5310;48.638;9.060;2023-08-12T14:31:59;6.75;;;2.47;;
10523;SDS011;5310;48.638;9.060;2023-08-12T14:34:25;5.30;;;2.00;;
10523;SDS011;5310;48.638;9.060;2023-08-12T14:36:51;5.35;;;2.10;;
10523;SDS011;5310;48.638;9.060;2023-08-12T14:39:17;7.57;;;2.58;;
10523;SDS011;5310;48.638;9.060;2023-08-12T14:41:43;5.00;;;1.80;;
10523;SDS011;5310;48.638;9.060;2023-08-12T14:44:09;5.78;;;2.15;;
10523;SDS011;5310;48.638;9.060;2023-08-12T14:46:34;6.70;;;2.40;;
10523;SDS011;5310;48.638;9.060;2023-08-12T14:49:00;6.10;;;2.10;;
10523;SDS011;5310;48.638;9.060;2023-08-12T14:51:26;4.47;;;1.83;;
10523;SDS011;5310;48.638;9.060;2023-08-12T14:53:54;5.60;;;2.03;;
10523;SDS011;5310;48.638;9.060;2023-08-12T14:56:20;5.40;;;2.08;;
10523;SDS011;5310;48.638;9.060;2023-08-12T14:58:46;6.45;;;2.30;;